Latest Weather Observations for High Range (Wanganderry)

IDN60801

Issued at 11:35 pm EDT Friday 31 October 2014 (issued every 30 minutes, with the page automatically refreshed every 10 minutes)

About weather observations | Map of weather stations | Latest weather observations for NSW | Other Formats
Station Details ID: 068262 Name: HIGH RANGE AWS (WANGANDERRY) Lat: -34.33 Lon: 150.27 Height: 813.6 m
Data from the previous 72 hours. | See also: Recent months for locations in New South Wales
Date/Time
EDT
Temp
°C
App
Temp
°C
Dew
Point
Rel
Hum
%
Delta-T
°C
Wind Press
QNH
hPa
Press
MSL
hPa
Rain
since 9 am
mm
Dir
 
Spd
km/h
Gust
km/h
Spd
kts
Gust
kts
31/11:30pm 18.8 15.5 6.3 44 6.5 NNE 13 15 7 8 1010.1 1008.3 0.0
31/11:00pm 18.8 15.0 6.0 43 6.6 NE 15 17 8 9 1010.3 1008.5 0.0
31/10:30pm 19.2 15.1 6.3 43 6.7 NE 17 20 9 11 1010.7 1008.9 0.0
31/10:00pm 19.8 16.1 6.5 42 7.0 NE 15 19 8 10 1011.1 1009.3 0.0
31/09:30pm 19.9 15.5 6.6 42 7.0 NE 19 22 10 12 1011.3 1009.5 0.0
31/09:00pm 20.2 15.8 6.5 41 7.2 NE 19 24 10 13 1011.4 1009.6 0.0
31/08:30pm 21.1 16.6 6.2 38 7.8 NE 19 24 10 13 1011.1 1009.3 0.0
31/08:00pm 21.6 17.2 6.7 38 7.9 NE 19 24 10 13 1011.0 1009.2 0.0
31/07:30pm 22.7 19.0 4.7 31 9.3 NNE 13 20 7 11 1010.9 1009.1 0.0
31/07:00pm 24.5 20.4 2.0 23 11.2 N 13 17 7 9 1010.9 1009.1 0.0
31/06:30pm 25.9 20.9 1.2 20 12.2 NW 17 24 9 13 1010.9 1009.1 0.0
31/06:00pm 27.1 22.8 0.8 18 13.0 NW 13 24 7 13 1011.0 1009.2 0.0
31/05:30pm 26.6 21.1 0.4 18 12.8 WNW 19 28 10 15 1011.0 1009.2 0.0
31/05:00pm 26.8 21.4 1.3 19 12.7 NW 19 28 10 15 1011.0 1009.2 0.0
31/04:30pm 27.9 22.8 2.9 20 12.9 NNW 19 30 10 16 1011.0 1009.2 0.0
31/04:00pm 27.8 22.0 2.1 19 13.1 NW 22 35 12 19 1011.3 1009.5 0.0
31/03:30pm 29.1 23.6 3.9 20 13.3 NNW 22 37 12 20 1011.4 1009.6 0.0
31/03:00pm 28.4 23.2 3.3 20 13.1 N 20 24 11 13 1011.8 1010.0 0.0
31/02:30pm 28.5 22.3 1.9 18 13.5 NW 24 37 13 20 1012.5 1010.7 0.0
31/02:00pm 28.6 21.5 1.2 17 13.8 NW 28 41 15 22 1012.8 1011.1 0.0
31/01:30pm 29.1 23.4 3.1 19 13.5 NNW 22 33 12 18 1013.2 1011.4 0.0
31/01:00pm 28.6 23.5 4.2 21 12.9 NNW 20 30 11 16 1013.6 1011.8 0.0
31/12:30pm 27.9 24.0 3.6 21 12.7 NW 13 24 7 13 1014.1 1012.4 0.0
31/12:00pm 27.3 23.8 3.7 22 12.3 NW 11 20 6 11 1014.7 1012.9 0.0
31/11:30am 26.9 22.6 5.2 25 11.6 N 17 26 9 14 1015.0 1013.3 0.0
31/11:00am 27.0 22.6 6.4 27 11.2 N 19 30 10 16 1015.5 1013.8 0.0
31/10:30am 26.1 21.8 5.1 26 11.1 N 17 26 9 14 1015.9 1014.1 0.0
31/10:00am 25.1 20.5 5.8 29 10.3 N 19 26 10 14 1016.1 1014.4 0.0
31/09:30am 23.8 19.4 4.7 29 9.9 N 17 22 9 12 1016.1 1014.4 0.0
31/09:00am 22.9 18.3 3.9 29 9.6 N 17 20 9 11 1016.2 1014.5 0.0
31/08:30am 22.1 16.9 3.3 29 9.4 N 20 26 11 14 1016.1 1014.4 0.0
31/08:00am 21.4 16.4 3.6 31 8.9 N 19 22 10 12 1015.7 1013.9 0.0
31/07:30am 20.1 14.2 2.0 30 8.7 N 22 28 12 15 1015.3 1013.6 0.0
31/07:00am 19.4 13.5 1.4 30 8.5 N 22 26 12 14 1015.1 1013.4 0.0
31/06:30am 18.9 12.9 1.0 30 8.4 N 22 26 12 14 1015.1 1013.4 0.0
31/06:00am 18.0 12.3 0.6 31 8.0 N 20 22 11 12 1014.9 1013.1 0.0
31/05:30am 18.4 12.7 0.5 30 8.2 N 20 22 11 12 1014.8 1013.0 0.0
31/05:00am 18.2 13.0 0.4 30 8.2 N 17 20 9 11 1014.7 1012.9 0.0
31/04:30am 18.5 13.8 0.6 30 8.3 NNW 15 19 8 10 1014.9 1013.1 0.0
31/04:00am 18.6 14.3 0.7 30 8.3 NNW 13 17 7 9 1015.1 1013.4 0.0
31/03:30am 18.6 14.6 0.7 30 8.3 NNW 11 13 6 7 1015.2 1013.5 0.0
31/03:00am 18.0 14.6 1.9 34 7.6 NNW 9 13 5 7 1015.2 1013.5 0.0
31/02:30am 17.5 14.2 2.7 37 7.1 NNW 9 11 5 6 1015.4 1013.7 0.0
31/02:00am 17.9 14.6 2.6 36 7.3 NNW 9 11 5 6 1015.5 1013.8 0.0
31/01:30am 18.3 15.0 2.2 34 7.7 NNW 9 11 5 6 1015.9 1014.1 0.0
31/01:00am 18.2 15.4 2.1 34 7.6 NNW 6 7 3 4 1016.3 1014.6 0.0
31/12:30am 18.0 15.1 2.7 36 7.3 NNE 7 7 4 4 1016.5 1014.8 0.0
31/12:00am 18.1 15.4 3.9 39 7.0 NNE 7 7 4 4 1016.6 1014.9 0.0
 
Date/Time
EDT
Temp
°C
App
Temp
°C
Dew
Point
Rel
Hum
%
Delta-T
°C
Wind Press
QNH
hPa
Press
MSL
hPa
Rain
since 9 am
mm
Dir
 
Spd
km/h
Gust
km/h
Spd
kts
Gust
kts
30/11:30pm 16.9 14.0 4.6 44 6.1 NE 9 11 5 6 1016.7 1015.0 0.0
30/11:00pm 18.9 16.5 1.9 32 8.1 NE 4 6 2 3 1016.7 1015.0 0.0
30/10:30pm 20.3 17.2 1.2 28 9.1 NW 7 9 4 5 1016.7 1015.0 0.0
30/10:00pm 20.1 16.6 1.5 29 8.8 NW 9 11 5 6 1016.6 1014.9 0.0
30/09:30pm 20.3 16.9 1.7 29 8.9 NW 9 9 5 5 1016.6 1014.9 0.0
30/09:00pm 20.1 16.6 1.5 29 8.8 WNW 9 11 5 6 1016.3 1014.6 0.0
30/08:30pm 19.6 16.2 2.0 31 8.4 W 9 11 5 6 1016.1 1014.4 0.0
30/08:00pm 18.9 15.2 2.3 33 8.0 W 11 13 6 7 1015.9 1014.1 0.0
30/07:30pm 19.8 14.6 2.2 31 8.5 W 19 22 10 12 1015.4 1013.7 0.0
30/07:00pm 21.2 15.8 2.5 29 9.1 W 20 28 11 15 1015.2 1013.5 0.0
30/06:30pm 22.0 16.9 3.2 29 9.4 WSW 19 24 10 13 1015.1 1013.4 0.0
30/06:00pm 23.2 17.8 2.7 26 10.2 W 20 30 11 16 1014.8 1013.0 0.0
30/05:30pm 23.7 17.5 2.0 24 10.7 WSW 24 35 13 19 1014.6 1012.8 0.0
30/05:00pm 24.0 17.2 3.3 26 10.5 W 28 37 15 20 1014.6 1012.8 0.0
30/04:30pm 24.3 18.9 4.6 28 10.2 WSW 22 32 12 17 1014.6 1012.8 0.0
30/04:22pm 24.2 16.7 3.5 26 10.5 W 32 37 17 20 1014.5 1012.7 0.0
30/04:00pm 24.1 20.3 4.0 27 10.3 WNW 13 17 7 9 1014.6 1012.8 0.0
30/03:30pm 24.2 18.5 5.1 29 10.0 W 24 35 13 19 1014.7 1012.9 0.0
30/03:00pm 23.8 17.7 4.7 29 9.9 W 26 39 14 21 1015.0 1013.3 0.0
30/02:52pm 23.8 17.1 3.7 27 10.2 WNW 28 52 15 28 1015.1 1013.4 0.0
30/02:30pm 24.2 18.2 5.1 29 10.0 WSW 26 37 14 20 1015.5 1013.8 0.0
30/02:00pm 23.7 18.3 4.6 29 9.9 WNW 22 28 12 15 1015.9 1014.1 0.0
30/01:30pm 23.0 16.3 3.5 28 9.8 W 28 41 15 22 1016.0 1014.2 0.0
30/01:00pm 22.7 16.4 3.8 29 9.6 W 26 39 14 21 1016.0 1014.2 0.0
30/12:30pm 22.1 16.1 5.5 34 8.6 W 26 39 14 21 1016.1 1014.4 0.0
30/12:00pm 19.7 13.6 5.0 38 7.5 W 26 39 14 21 1016.6 1014.9 0.0
30/11:30am 20.7 15.5 5.5 37 7.8 W 22 33 12 18 1016.6 1014.9 0.0
30/11:00am 19.4 15.1 7.2 45 6.4 W 19 30 10 16 1016.9 1015.2 0.0
30/10:30am 18.2 14.3 7.3 49 5.7 WNW 17 22 9 12 1017.1 1015.3 0.0
30/10:00am 16.3 12.4 7.0 54 4.8 WNW 17 22 9 12 1017.1 1015.3 0.0
30/09:30am 15.5 12.0 7.0 57 4.4 W 15 19 8 10 1017.1 1015.3 0.0
30/09:00am 14.6 11.7 6.7 59 4.0 WNW 11 15 6 8 1017.1 1015.3 0.0
30/08:30am 13.8 10.7 7.3 65 3.3 W 13 17 7 9 1017.2 1015.5 0.0
30/08:00am 14.3 10.7 6.6 60 3.9 WNW 15 19 8 10 1016.9 1015.2 0.0
30/07:30am 13.1 9.3 7.5 69 2.9 W 17 19 9 10 1016.7 1015.0 0.0
30/07:00am 12.4 8.7 8.1 75 2.2 WNW 17 20 9 11 1016.6 1014.9 0.0
30/06:30am 11.7 8.7 7.8 77 2.0 WNW 13 17 7 9 1016.3 1014.6 0.0
30/06:00am 11.5 8.9 9.2 86 1.2 NW 13 17 7 9 1016.0 1014.2 0.0
30/05:30am 11.4 8.3 9.0 85 1.3 WNW 15 17 8 9 1016.0 1014.2 0.0
30/05:00am 11.5 8.5 9.2 86 1.2 NW 15 19 8 10 1016.0 1014.2 0.0
30/04:30am 11.0 8.3 10.5 97 0.3 NW 15 17 8 9 1015.8 1014.0 0.0
30/04:00am 11.0 8.8 10.7 98 0.2 NNW 13 15 7 8 1015.9 1014.1 0.0
30/03:30am 10.9 8.6 10.4 97 0.3 NNW 13 15 7 8 1016.1 1014.4 0.0
30/03:00am 11.1 8.5 10.6 97 0.3 NNW 15 17 8 9 1016.4 1014.7 0.0
30/02:30am 11.5 9.0 11.0 97 0.3 N 15 17 8 9 1016.6 1014.9 0.0
30/02:00am 12.0 10.0 11.4 96 0.3 N 13 15 7 8 1016.9 1015.2 0.0
30/01:30am 12.1 9.7 11.5 96 0.3 N 15 19 8 10 1017.2 1015.5 0.0
30/01:00am 12.3 9.6 11.7 96 0.3 N 17 20 9 11 1017.4 1015.7 0.0
30/12:30am 12.4 9.7 11.8 96 0.3 N 17 20 9 11 1017.6 1015.9 0.0
30/12:00am 12.5 10.6 11.9 96 0.3 N 13 17 7 9 1017.9 1016.2 0.0
 
Date/Time
EDT
Temp
°C
App
Temp
°C
Dew
Point
Rel
Hum
%
Delta-T
°C
Wind Press
QNH
hPa
Press
MSL
hPa
Rain
since 9 am
mm
Dir
 
Spd
km/h
Gust
km/h
Spd
kts
Gust
kts
29/11:30pm 12.6 10.8 12.0 96 0.3 NNE 13 19 7 10 1018.0 1016.3 0.0
29/11:00pm 12.8 10.6 12.0 95 0.4 NNE 15 17 8 9 1018.1 1016.4 0.0
29/10:30pm 12.9 10.3 12.0 94 0.5 NNE 17 22 9 12 1018.0 1016.3 0.0
29/10:00pm 12.8 10.2 11.9 94 0.5 N 17 20 9 11 1017.8 1016.1 0.0
29/09:30pm 12.8 9.8 11.9 94 0.5 NNE 19 24 10 13 1017.9 1016.2 0.0
29/09:00pm 12.9 9.9 12.0 94 0.5 NNE 19 22 10 12 1017.8 1016.1 0.0
29/08:30pm 12.9 10.2 11.6 92 0.7 NNE 17 20 9 11 1017.7 1016.0 0.0
29/08:00pm 13.4 10.7 11.8 90 0.9 NNE 17 20 9 11 1017.5 1015.8 0.0
29/07:30pm 14.1 11.4 11.8 86 1.3 NE 17 20 9 11 1017.3 1015.6 0.0
29/07:00pm 15.3 12.6 11.7 79 2.0 NE 17 22 9 12 1016.8 1015.1 0.0
29/06:30pm 16.6 13.2 11.3 71 3.0 NE 20 26 11 14 1016.5 1014.8 0.0
29/06:00pm 18.2 15.2 10.6 61 4.2 NE 17 22 9 12 1016.3 1014.6 0.0
29/05:30pm 19.8 17.8 10.2 54 5.4 NNE 11 17 6 9 1016.1 1014.4 0.0
29/05:00pm 22.1 19.3 5.1 33 8.8 WNW 9 20 5 11 1016.0 1014.2 0.0
29/04:30pm 22.7 20.4 5.6 33 9.0 W 7 15 4 8 1016.1 1014.4 0.0
29/04:00pm 22.5 19.0 5.4 33 8.9 W 13 22 7 12 1016.2 1014.5 0.0
29/03:30pm 22.5 19.4 5.4 33 8.9 SW 11 13 6 7 1016.3 1014.6 0.0
29/03:00pm 22.1 18.9 5.1 33 8.8 NNW 11 24 6 13 1016.7 1015.0 0.0
29/02:30pm 22.1 18.6 5.5 34 8.6 W 13 26 7 14 1016.9 1015.2 0.0
29/02:00pm 22.0 19.0 5.8 35 8.5 W 11 24 6 13 1017.3 1015.6 0.0
29/01:30pm 21.4 18.3 5.7 36 8.2 W 11 28 6 15 1017.6 1015.9 0.0
29/01:00pm 20.0 16.8 5.3 38 7.5 W 11 22 6 12 1017.6 1015.9 0.0
29/12:30pm 19.7 16.8 4.6 37 7.6 WSW 9 22 5 12 1017.9 1016.2 0.0
29/12:00pm 19.2 16.2 6.0 42 6.8 W 11 19 6 10 1018.2 1016.6 0.0
29/11:30am 18.8 14.9 6.9 46 6.2 SW 17 26 9 14 1018.5 1016.8 0.0
29/11:00am 17.8 12.7 6.0 46 6.0 SW 22 33 12 18 1018.7 1017.0 0.0
29/10:30am 17.6 14.6 7.9 53 5.1 W 13 20 7 11 1018.9 1017.2 0.0
29/10:00am 16.2 12.3 6.9 54 4.8 WSW 17 22 9 12 1019.0 1017.3 0.0
29/09:30am 15.3 9.2 6.8 57 4.3 WSW 28 35 15 19 1018.7 1017.0 0.0
29/09:00am 14.3 8.5 6.4 59 4.0 WSW 26 35 14 19 1018.6 1016.9 0.0
29/08:30am 13.4 7.6 6.3 62 3.5 WSW 26 33 14 18 1018.1 1016.4 0.0
29/08:00am 12.4 5.8 6.2 66 3.1 WSW 30 37 16 20 1017.8 1016.1 0.0
29/07:30am 11.4 4.7 5.7 68 2.8 WSW 30 35 16 19 1017.4 1015.7 0.0
29/07:00am 10.8 4.9 5.6 70 2.5 W 26 33 14 18 1017.2 1015.5 0.0
29/06:30am 10.1 3.3 5.3 72 2.3 WSW 30 35 16 19 1016.7 1015.0 0.0
29/06:00am 9.5 2.7 5.3 75 2.0 WSW 30 33 16 18 1016.4 1014.7 0.0
29/05:30am 9.5 2.7 5.3 75 2.0 WSW 30 35 16 19 1016.1 1014.4 0.0
29/05:00am 9.0 3.3 5.0 76 1.9 SW 24 30 13 16 1016.0 1014.2 0.0
29/04:30am 9.3 4.0 4.9 74 2.1 WSW 22 28 12 15 1015.5 1013.8 0.0
29/04:00am 10.0 2.6 5.0 71 2.4 WSW 33 39 18 21 1015.0 1013.3 0.0
29/03:30am 9.7 3.6 4.7 71 2.3 WSW 26 33 14 18 1015.2 1013.5 0.0
29/03:00am 9.9 4.5 4.7 70 2.4 WSW 22 32 12 17 1015.3 1013.6 0.0
29/02:30am 10.5 3.2 4.6 67 2.8 WSW 32 43 17 23 1014.9 1013.1 0.0
29/02:00am 10.6 4.1 4.5 66 2.9 WSW 28 39 15 21 1015.2 1013.5 0.0
29/01:30am 11.1 3.8 4.3 63 3.2 WSW 32 41 17 22 1015.2 1013.5 0.0
29/01:00am 11.3 2.7 4.5 63 3.2 WSW 39 54 21 29 1015.1 1013.4 0.0
29/12:52am 11.4 3.9 4.4 62 3.3 WSW 33 54 18 29 1015.4 1013.7 0.0
29/12:30am 11.5 3.6 4.3 61 3.4 WSW 35 46 19 25 1015.3 1013.6 0.0
29/12:00am 11.6 4.1 4.3 61 3.4 WSW 33 48 18 26 1015.8 1014.0 0.0

Other Formats:

Comma delimited format used in spreadsheet applications
http://www.bom.gov.au/fwo/IDN60801/IDN60801.99742.axf

JavaScript Object Notation format (JSON) in row-major order
http://www.bom.gov.au/fwo/IDN60801/IDN60801.99742.json